Delaware Responder — WBO8577 — position and weather

sailwx.info

Track history (hours):
 
Tides and Currents Weather Stations Pressure Air Temp Water Temp Dewpoint Dewpoint Depression Visibility Wind Speed Wind Dir Waves Ship Positions

Delaware Responder

Owner: MARINE SPILL RESPONSE CORP, HERNDON, VA. More information available from US FCC via Universal Licensing System and Coast Guard Vessel Documentation Center.

Last reported at 2018-Jun-21 18:00 UTC. Time now 2018-Jun-21 18:16 UTC.
Position N 39°32' W 075°49'.

Length 33 m; draft 4.3 m.

MMSI: 366593000.

Date/timePositionNaut miles runAvg speedWind from/ knotsBaromVisibWave heightAir tempDewpointWater temp
2018-Jun-21 18:00N 39°32' W 075°49'3 6.6
2018-Jun-21 17:30N 39°31' W 075°53'611.1
2018-Jun-21 17:00N 39°27' W 075°59'510.3
2018-Jun-21 16:30N 39°23' W 076°04'0 0.1
2018-Jun-21 15:58N 39°23' W 076°04'0 0.0
2018-Jun-21 15:28N 39°23' W 076°04'0 0.0
2018-Jun-21 14:58N 39°23' W 076°04'0 0.0
2018-Jun-21 14:25N 39°23' W 076°04'0 0.0
2018-Jun-21 13:58N 39°23' W 076°04'0 0.0
2018-Jun-21 13:31N 39°23' W 076°04'0 1.0
2018-Jun-21 13:00N 39°24' W 076°03'511.1
2018-Jun-21 12:30N 39°28' W 075°58'510.7
2018-Jun-21 12:01N 39°31' W 075°53'3 5.6
2018-Jun-21 11:30N 39°32' W 075°49'0 0.0
2018-Jun-21 11:00N 39°32' W 075°49'0 0.0
2018-Jun-21 10:30N 39°32' W 075°49'  
2018-Jun-15 17:27N 39°32' W 075°49'0 0.0
2018-Jun-15 16:59N 39°32' W 075°49'0 0.0
2018-Jun-15 16:29N 39°32' W 075°49'0 0.0
2018-Jun-15 15:59N 39°32' W 075°49'0 0.0
2018-Jun-15 15:29N 39°32' W 075°49'0 0.0
2018-Jun-15 14:59N 39°32' W 075°49'0 0.0
2018-Jun-15 14:29N 39°32' W 075°49'0 0.0
2018-Jun-15 13:59N 39°32' W 075°49'0 0.0
2018-Jun-15 13:29N 39°32' W 075°49'0 0.0
2018-Jun-15 12:59N 39°32' W 075°49'0 0.0
2018-Jun-15 12:29N 39°32' W 075°49'0 0.0
2018-Jun-15 11:59N 39°32' W 075°49'0 0.0
2018-Jun-15 11:29N 39°32' W 075°49'0 0.0
2018-Jun-15 10:56N 39°32' W 075°49'0 0.0
2018-Jun-15 10:29N 39°32' W 075°49'0 0.0
2018-Jun-15 09:59N 39°32' W 075°49'0 0.0
2018-Jun-15 09:29N 39°32' W 075°49'0 0.0
2018-Jun-15 08:59N 39°32' W 075°49'0 0.0
2018-Jun-15 08:29N 39°32' W 075°49'0 0.0
2018-Jun-15 07:59N 39°32' W 075°49'0 0.0
2018-Jun-15 07:29N 39°32' W 075°49'0 0.0
2018-Jun-15 06:56N 39°32' W 075°49'0 0.0
2018-Jun-15 06:23N 39°32' W 075°49'0 0.0
2018-Jun-15 05:53N 39°32' W 075°49'0 0.0
2018-Jun-15 05:26N 39°32' W 075°49'0 0.0
2018-Jun-15 04:59N 39°32' W 075°49'0 0.0
2018-Jun-15 04:26N 39°32' W 075°49'0 0.0
2018-Jun-15 03:59N 39°32' W 075°49'0 0.0
2018-Jun-15 03:29N 39°32' W 075°49'0 0.0
2018-Jun-15 02:59N 39°32' W 075°49'0 0.0
2018-Jun-15 02:29N 39°32' W 075°49'0 0.0
2018-Jun-15 01:59N 39°32' W 075°49'0 0.0
2018-Jun-15 01:29N 39°32' W 075°49'0 0.0
2018-Jun-15 00:59N 39°32' W 075°49'0 0.0
2018-Jun-15 00:29N 39°32' W 075°49'0 0.0
2018-Jun-14 23:59N 39°32' W 075°49'0 0.0
2018-Jun-14 23:29N 39°32' W 075°49'0 0.0
2018-Jun-14 22:59N 39°32' W 075°49'0 0.0
2018-Jun-14 22:29N 39°32' W 075°49'0 0.0
2018-Jun-14 21:59N 39°32' W 075°49'0 0.0
2018-Jun-14 21:29N 39°32' W 075°49'0 0.0
2018-Jun-14 20:59N 39°32' W 075°49'0 0.0
2018-Jun-14 20:29N 39°32' W 075°49'0 0.0
2018-Jun-14 19:59N 39°32' W 075°49'0 0.0
2018-Jun-14 19:29N 39°32' W 075°49'0 0.0
2018-Jun-14 18:59N 39°32' W 075°49'0 0.0
2018-Jun-14 18:29N 39°32' W 075°49'0 0.2
2018-Jun-14 18:00N 39°32' W 075°50'5 9.3
2018-Jun-14 17:30N 39°30' W 075°55'611.1
2018-Jun-14 17:00N 39°26' W 076°00'4 7.7
2018-Jun-14 16:30N 39°23' W 076°03'0 0.0
2018-Jun-14 16:00N 39°23' W 076°03'0 0.0
2018-Jun-14 15:30N 39°23' W 076°03'0 0.0
2018-Jun-14 15:00N 39°23' W 076°03'0 0.0
2018-Jun-14 14:30N 39°23' W 076°03'0 0.0
2018-Jun-14 13:58N 39°23' W 076°03'1 2.7
2018-Jun-14 13:30N 39°24' W 076°02'4 7.5
2018-Jun-14 13:00N 39°27' W 075°59'5 9.6
2018-Jun-14 12:30N 39°30' W 075°55'2 4.2
2018-Jun-14 12:00N 39°32' W 075°52'2 4.3
2018-Jun-14 11:30N 39°32' W 075°49'0 0.0
2018-Jun-14 11:00N 39°32' W 075°49'0 0.0
2018-Jun-14 10:30N 39°32' W 075°49'0 0.0
2018-Jun-14 10:00N 39°32' W 075°49'0 0.0
2018-Jun-14 09:30N 39°32' W 075°49'0 0.0
2018-Jun-14 09:00N 39°32' W 075°49'0 0.0
2018-Jun-14 08:30N 39°32' W 075°49'0 0.0
2018-Jun-14 08:00N 39°32' W 075°49'0 0.0
2018-Jun-14 07:30N 39°32' W 075°49'0 0.0
2018-Jun-14 07:00N 39°32' W 075°49'0 0.0
2018-Jun-14 06:30N 39°32' W 075°49'0 0.0
2018-Jun-14 06:00N 39°32' W 075°49'0 0.0
2018-Jun-14 05:30N 39°32' W 075°49'0 0.0
2018-Jun-14 05:00N 39°32' W 075°49'0 0.0
2018-Jun-14 04:30N 39°32' W 075°49'0 0.0
2018-Jun-14 04:00N 39°32' W 075°49'0 0.0
2018-Jun-14 03:30N 39°32' W 075°49'0 0.0
2018-Jun-14 03:00N 39°32' W 075°49'0 0.0
2018-Jun-14 02:30N 39°32' W 075°49'0 0.0
2018-Jun-14 02:00N 39°32' W 075°49'0 0.0
2018-Jun-14 01:30N 39°32' W 075°49'0 0.0
2018-Jun-14 01:00N 39°32' W 075°49'0 0.0
2018-Jun-14 00:30N 39°32' W 075°49'0 0.0
2018-Jun-14 00:00N 39°32' W 075°49'0 0.0
2018-Jun-13 23:30N 39°32' W 075°49'0 0.0
2018-Jun-13 23:00N 39°32' W 075°49'0 0.0
2018-Jun-13 22:30N 39°32' W 075°49'0 0.0
2018-Jun-13 22:00N 39°32' W 075°49'0 0.0
2018-Jun-13 21:30N 39°32' W 075°49'0 0.0
2018-Jun-13 21:00N 39°32' W 075°49'0 0.0
2018-Jun-13 20:30N 39°32' W 075°49'0 0.0
2018-Jun-13 20:00N 39°32' W 075°49'0 0.0
2018-Jun-13 19:30N 39°32' W 075°49'0 0.0
2018-Jun-13 19:00N 39°32' W 075°49'0 0.0
2018-Jun-13 18:30N 39°32' W 075°49'0 0.0
2018-Jun-13 18:00N 39°32' W 075°49'0 0.0
2018-Jun-13 17:30N 39°32' W 075°49'0 0.0
2018-Jun-13 17:00N 39°32' W 075°49'0 0.0
2018-Jun-13 16:30N 39°32' W 075°49'0 0.0
2018-Jun-13 16:00N 39°32' W 075°49'0 0.0
2018-Jun-13 15:30N 39°32' W 075°49'0 0.0
2018-Jun-13 15:00N 39°32' W 075°49'0 0.0
2018-Jun-13 14:30N 39°32' W 075°49'0 0.0
2018-Jun-13 14:00N 39°32' W 075°49'0 0.0
2018-Jun-13 13:30N 39°32' W 075°49'0 0.0
2018-Jun-13 13:00N 39°32' W 075°49'0 0.0
2018-Jun-13 12:30N 39°32' W 075°49'0 0.0
2018-Jun-13 12:00N 39°32' W 075°49'0 0.0
2018-Jun-13 11:30N 39°32' W 075°49'0 0.0
2018-Jun-13 11:00N 39°32' W 075°49'0 0.0
2018-Jun-13 10:30N 39°32' W 075°49'0 0.0
2018-Jun-13 10:00N 39°32' W 075°49'0 0.0
2018-Jun-13 09:30N 39°32' W 075°49'0 0.0
2018-Jun-13 09:00N 39°32' W 075°49'0 0.0
2018-Jun-13 08:30N 39°32' W 075°49'0 0.0
2018-Jun-13 08:00N 39°32' W 075°49'0 0.0
2018-Jun-13 07:30N 39°32' W 075°49'0 0.0
2018-Jun-13 06:59N 39°32' W 075°49'0 0.0
2018-Jun-13 06:30N 39°32' W 075°49'0 0.0
2018-Jun-13 06:00N 39°32' W 075°49'0 0.0
2018-Jun-13 05:30N 39°32' W 075°49'0 0.0
2018-Jun-13 05:00N 39°32' W 075°49'0 0.0
2018-Jun-13 04:30N 39°32' W 075°49'0 0.0
2018-Jun-13 04:00N 39°32' W 075°49'0 0.0
2018-Jun-13 03:30N 39°32' W 075°49'0 0.0
2018-Jun-13 03:00N 39°32' W 075°49'0 0.0
2018-Jun-13 02:30N 39°32' W 075°49'0 0.0
2018-Jun-13 02:00N 39°32' W 075°49'0 0.0
2018-Jun-13 01:31N 39°32' W 075°49'0 0.0
2018-Jun-13 01:00N 39°32' W 075°49'0 0.0
2018-Jun-13 00:30N 39°32' W 075°49'0 0.0
2018-Jun-13 00:00N 39°32' W 075°49'0 0.0
2018-Jun-12 23:30N 39°32' W 075°49'0 0.0
2018-Jun-12 23:00N 39°32' W 075°49'0 0.0
2018-Jun-12 22:30N 39°32' W 075°49'0 0.0
2018-Jun-12 22:00N 39°32' W 075°49'0 0.0
2018-Jun-12 21:30N 39°32' W 075°49'0 0.0
2018-Jun-12 21:00N 39°32' W 075°49'0 0.0
2018-Jun-12 20:30N 39°32' W 075°49'0 0.0
2018-Jun-12 20:00N 39°32' W 075°49'0 0.0
2018-Jun-12 19:30N 39°32' W 075°49'0 0.0
2018-Jun-12 19:00N 39°32' W 075°49'0 0.0
2018-Jun-12 18:30N 39°32' W 075°49'0 0.0
2018-Jun-12 18:00N 39°32' W 075°49'0 0.0
2018-Jun-12 17:30N 39°32' W 075°49'0 0.0
2018-Jun-12 17:00N 39°32' W 075°49'0 0.0
2018-Jun-12 16:30N 39°32' W 075°49'0 0.0
2018-Jun-12 16:00N 39°32' W 075°49'0 0.0
2018-Jun-12 15:30N 39°32' W 075°49'0 0.0
2018-Jun-12 15:00N 39°32' W 075°49'0 0.0
2018-Jun-12 14:30N 39°32' W 075°49'0 0.0
2018-Jun-12 14:00N 39°32' W 075°49'0 0.0
2018-Jun-12 13:30N 39°32' W 075°49'0 0.0
2018-Jun-12 13:00N 39°32' W 075°49'0 0.0
2018-Jun-12 12:31N 39°32' W 075°49'0 0.0
2018-Jun-12 12:01N 39°32' W 075°49'0 0.0
2018-Jun-12 11:30N 39°32' W 075°49'0 0.0
2018-Jun-12 11:01N 39°32' W 075°49'0 0.0
2018-Jun-12 10:30N 39°32' W 075°49'0 0.0
2018-Jun-12 10:01N 39°32' W 075°49'0 0.0
2018-Jun-12 09:29N 39°32' W 075°49'0 0.0
2018-Jun-12 09:00N 39°32' W 075°49'0 0.0
2018-Jun-12 08:30N 39°32' W 075°49'0 0.0
2018-Jun-12 08:00N 39°32' W 075°49'0 0.0
2018-Jun-12 07:31N 39°32' W 075°49'0 0.0
2018-Jun-12 07:01N 39°32' W 075°49'0 0.0
2018-Jun-12 06:30N 39°32' W 075°49'0 0.0
2018-Jun-12 06:00N 39°32' W 075°49'0 0.0
2018-Jun-12 05:30N 39°32' W 075°49'0 0.0
2018-Jun-12 05:00N 39°32' W 075°49'0 0.0
2018-Jun-12 04:30N 39°32' W 075°49'0 0.0
2018-Jun-12 04:00N 39°32' W 075°49'0 0.0
2018-Jun-12 03:30N 39°32' W 075°49'0 0.0
2018-Jun-12 03:00N 39°32' W 075°49'0 0.0
2018-Jun-12 02:30N 39°32' W 075°49'0 0.0
2018-Jun-12 02:00N 39°32' W 075°49'0 0.0
2018-Jun-12 01:29N 39°32' W 075°49'0 0.0
2018-Jun-12 01:00N 39°32' W 075°49'0 0.0
2018-Jun-12 00:30N 39°32' W 075°49'0 0.0
2018-Jun-12 00:00N 39°32' W 075°49'0 0.0
2018-Jun-11 23:30N 39°32' W 075°49'0 0.0
2018-Jun-11 23:00N 39°32' W 075°49'0 0.0
2018-Jun-11 22:30N 39°32' W 075°49'0 0.0
2018-Jun-11 22:00N 39°32' W 075°49'0 0.0
2018-Jun-11 21:30N 39°32' W 075°49'0 0.0
2018-Jun-11 21:00N 39°32' W 075°49'0 0.0
2018-Jun-11 20:30N 39°32' W 075°49'0 0.0
2018-Jun-11 20:00N 39°32' W 075°49'0 0.0
2018-Jun-11 19:30N 39°32' W 075°49'0 0.0
2018-Jun-11 19:00N 39°32' W 075°49'0 0.0
2018-Jun-11 18:30N 39°32' W 075°49'  
Track history (hours):
 
Tides and Currents Weather Stations Pressure Air Temp Water Temp Dewpoint Dewpoint Depression Visibility Wind Speed Wind Dir Waves Ship Positions

Delaware Responder

Owner: MARINE SPILL RESPONSE CORP, HERNDON, VA. More information available from US FCC via Universal Licensing System and Coast Guard Vessel Documentation Center.

Last reported at 2018-Jun-21 18:00 UTC. Time now 2018-Jun-21 18:16 UTC.
Position N 39°32' W 075°49'.

Length 33 m; draft 4.3 m.

MMSI: 366593000.

Date/timePositionNaut miles runAvg speedWind from/ knotsBaromVisibWave heightAir tempDewpointWater temp
2018-Jun-21 18:00N 39°32' W 075°49'3 6.6
2018-Jun-21 17:30N 39°31' W 075°53'611.1
2018-Jun-21 17:00N 39°27' W 075°59'510.3
2018-Jun-21 16:30N 39°23' W 076°04'0 0.1
2018-Jun-21 15:58N 39°23' W 076°04'0 0.0
2018-Jun-21 15:28N 39°23' W 076°04'0 0.0
2018-Jun-21 14:58N 39°23' W 076°04'0 0.0
2018-Jun-21 14:25N 39°23' W 076°04'0 0.0
2018-Jun-21 13:58N 39°23' W 076°04'0 0.0
2018-Jun-21 13:31N 39°23' W 076°04'0 1.0
2018-Jun-21 13:00N 39°24' W 076°03'511.1
2018-Jun-21 12:30N 39°28' W 075°58'510.7
2018-Jun-21 12:01N 39°31' W 075°53'3 5.6
2018-Jun-21 11:30N 39°32' W 075°49'0 0.0
2018-Jun-21 11:00N 39°32' W 075°49'0 0.0
2018-Jun-21 10:30N 39°32' W 075°49'  
2018-Jun-15 17:27N 39°32' W 075°49'0 0.0
2018-Jun-15 16:59N 39°32' W 075°49'0 0.0
2018-Jun-15 16:29N 39°32' W 075°49'0 0.0
2018-Jun-15 15:59N 39°32' W 075°49'0 0.0
2018-Jun-15 15:29N 39°32' W 075°49'0 0.0
2018-Jun-15 14:59N 39°32' W 075°49'0 0.0
2018-Jun-15 14:29N 39°32' W 075°49'0 0.0
2018-Jun-15 13:59N 39°32' W 075°49'0 0.0
2018-Jun-15 13:29N 39°32' W 075°49'0 0.0
2018-Jun-15 12:59N 39°32' W 075°49'0 0.0
2018-Jun-15 12:29N 39°32' W 075°49'0 0.0
2018-Jun-15 11:59N 39°32' W 075°49'0 0.0
2018-Jun-15 11:29N 39°32' W 075°49'0 0.0
2018-Jun-15 10:56N 39°32' W 075°49'0 0.0
2018-Jun-15 10:29N 39°32' W 075°49'0 0.0
2018-Jun-15 09:59N 39°32' W 075°49'0 0.0
2018-Jun-15 09:29N 39°32' W 075°49'0 0.0
2018-Jun-15 08:59N 39°32' W 075°49'0 0.0
2018-Jun-15 08:29N 39°32' W 075°49'0 0.0
2018-Jun-15 07:59N 39°32' W 075°49'0 0.0
2018-Jun-15 07:29N 39°32' W 075°49'0 0.0
2018-Jun-15 06:56N 39°32' W 075°49'0 0.0
2018-Jun-15 06:23N 39°32' W 075°49'0 0.0
2018-Jun-15 05:53N 39°32' W 075°49'0 0.0
2018-Jun-15 05:26N 39°32' W 075°49'0 0.0
2018-Jun-15 04:59N 39°32' W 075°49'0 0.0
2018-Jun-15 04:26N 39°32' W 075°49'0 0.0
2018-Jun-15 03:59N 39°32' W 075°49'0 0.0
2018-Jun-15 03:29N 39°32' W 075°49'0 0.0
2018-Jun-15 02:59N 39°32' W 075°49'0 0.0
2018-Jun-15 02:29N 39°32' W 075°49'0 0.0
2018-Jun-15 01:59N 39°32' W 075°49'0 0.0
2018-Jun-15 01:29N 39°32' W 075°49'0 0.0
2018-Jun-15 00:59N 39°32' W 075°49'0 0.0
2018-Jun-15 00:29N 39°32' W 075°49'0 0.0
2018-Jun-14 23:59N 39°32' W 075°49'0 0.0
2018-Jun-14 23:29N 39°32' W 075°49'0 0.0
2018-Jun-14 22:59N 39°32' W 075°49'0 0.0
2018-Jun-14 22:29N 39°32' W 075°49'0 0.0
2018-Jun-14 21:59N 39°32' W 075°49'0 0.0
2018-Jun-14 21:29N 39°32' W 075°49'0 0.0
2018-Jun-14 20:59N 39°32' W 075°49'0 0.0
2018-Jun-14 20:29N 39°32' W 075°49'0 0.0
2018-Jun-14 19:59N 39°32' W 075°49'0 0.0
2018-Jun-14 19:29N 39°32' W 075°49'0 0.0
2018-Jun-14 18:59N 39°32' W 075°49'0 0.0
2018-Jun-14 18:29N 39°32' W 075°49'0 0.2
2018-Jun-14 18:00N 39°32' W 075°50'5 9.3
2018-Jun-14 17:30N 39°30' W 075°55'611.1
2018-Jun-14 17:00N 39°26' W 076°00'4 7.7
2018-Jun-14 16:30N 39°23' W 076°03'0 0.0
2018-Jun-14 16:00N 39°23' W 076°03'0 0.0
2018-Jun-14 15:30N 39°23' W 076°03'0 0.0
2018-Jun-14 15:00N 39°23' W 076°03'0 0.0
2018-Jun-14 14:30N 39°23' W 076°03'0 0.0
2018-Jun-14 13:58N 39°23' W 076°03'1 2.7
2018-Jun-14 13:30N 39°24' W 076°02'4 7.5
2018-Jun-14 13:00N 39°27' W 075°59'5 9.6
2018-Jun-14 12:30N 39°30' W 075°55'2 4.2
2018-Jun-14 12:00N 39°32' W 075°52'2 4.3
2018-Jun-14 11:30N 39°32' W 075°49'0 0.0
2018-Jun-14 11:00N 39°32' W 075°49'0 0.0
2018-Jun-14 10:30N 39°32' W 075°49'0 0.0
2018-Jun-14 10:00N 39°32' W 075°49'0 0.0
2018-Jun-14 09:30N 39°32' W 075°49'0 0.0
2018-Jun-14 09:00N 39°32' W 075°49'0 0.0
2018-Jun-14 08:30N 39°32' W 075°49'0 0.0
2018-Jun-14 08:00N 39°32' W 075°49'0 0.0
2018-Jun-14 07:30N 39°32' W 075°49'0 0.0
2018-Jun-14 07:00N 39°32' W 075°49'0 0.0
2018-Jun-14 06:30N 39°32' W 075°49'0 0.0
2018-Jun-14 06:00N 39°32' W 075°49'0 0.0
2018-Jun-14 05:30N 39°32' W 075°49'0 0.0
2018-Jun-14 05:00N 39°32' W 075°49'0 0.0
2018-Jun-14 04:30N 39°32' W 075°49'0 0.0
2018-Jun-14 04:00N 39°32' W 075°49'0 0.0
2018-Jun-14 03:30N 39°32' W 075°49'0 0.0
2018-Jun-14 03:00N 39°32' W 075°49'0 0.0
2018-Jun-14 02:30N 39°32' W 075°49'0 0.0
2018-Jun-14 02:00N 39°32' W 075°49'0 0.0
2018-Jun-14 01:30N 39°32' W 075°49'0 0.0
2018-Jun-14 01:00N 39°32' W 075°49'0 0.0
2018-Jun-14 00:30N 39°32' W 075°49'0 0.0
2018-Jun-14 00:00N 39°32' W 075°49'0 0.0
2018-Jun-13 23:30N 39°32' W 075°49'0 0.0
2018-Jun-13 23:00N 39°32' W 075°49'0 0.0
2018-Jun-13 22:30N 39°32' W 075°49'0 0.0
2018-Jun-13 22:00N 39°32' W 075°49'0 0.0
2018-Jun-13 21:30N 39°32' W 075°49'0 0.0
2018-Jun-13 21:00N 39°32' W 075°49'0 0.0
2018-Jun-13 20:30N 39°32' W 075°49'0 0.0
2018-Jun-13 20:00N 39°32' W 075°49'0 0.0
2018-Jun-13 19:30N 39°32' W 075°49'0 0.0
2018-Jun-13 19:00N 39°32' W 075°49'0 0.0
2018-Jun-13 18:30N 39°32' W 075°49'0 0.0
2018-Jun-13 18:00N 39°32' W 075°49'0 0.0
2018-Jun-13 17:30N 39°32' W 075°49'0 0.0
2018-Jun-13 17:00N 39°32' W 075°49'0 0.0
2018-Jun-13 16:30N 39°32' W 075°49'0 0.0
2018-Jun-13 16:00N 39°32' W 075°49'0 0.0
2018-Jun-13 15:30N 39°32' W 075°49'0 0.0
2018-Jun-13 15:00N 39°32' W 075°49'0 0.0
2018-Jun-13 14:30N 39°32' W 075°49'0 0.0
2018-Jun-13 14:00N 39°32' W 075°49'0 0.0
2018-Jun-13 13:30N 39°32' W 075°49'0 0.0
2018-Jun-13 13:00N 39°32' W 075°49'0 0.0
2018-Jun-13 12:30N 39°32' W 075°49'0 0.0
2018-Jun-13 12:00N 39°32' W 075°49'0 0.0
2018-Jun-13 11:30N 39°32' W 075°49'0 0.0
2018-Jun-13 11:00N 39°32' W 075°49'0 0.0
2018-Jun-13 10:30N 39°32' W 075°49'0 0.0
2018-Jun-13 10:00N 39°32' W 075°49'0 0.0
2018-Jun-13 09:30N 39°32' W 075°49'0 0.0
2018-Jun-13 09:00N 39°32' W 075°49'0 0.0
2018-Jun-13 08:30N 39°32' W 075°49'0 0.0
2018-Jun-13 08:00N 39°32' W 075°49'0 0.0
2018-Jun-13 07:30N 39°32' W 075°49'0 0.0
2018-Jun-13 06:59N 39°32' W 075°49'0 0.0
2018-Jun-13 06:30N 39°32' W 075°49'0 0.0
2018-Jun-13 06:00N 39°32' W 075°49'0 0.0
2018-Jun-13 05:30N 39°32' W 075°49'0 0.0
2018-Jun-13 05:00N 39°32' W 075°49'0 0.0
2018-Jun-13 04:30N 39°32' W 075°49'0 0.0
2018-Jun-13 04:00N 39°32' W 075°49'0 0.0
2018-Jun-13 03:30N 39°32' W 075°49'0 0.0
2018-Jun-13 03:00N 39°32' W 075°49'0 0.0
2018-Jun-13 02:30N 39°32' W 075°49'0 0.0
2018-Jun-13 02:00N 39°32' W 075°49'0 0.0
2018-Jun-13 01:31N 39°32' W 075°49'0 0.0
2018-Jun-13 01:00N 39°32' W 075°49'0 0.0
2018-Jun-13 00:30N 39°32' W 075°49'0 0.0
2018-Jun-13 00:00N 39°32' W 075°49'0 0.0
2018-Jun-12 23:30N 39°32' W 075°49'0 0.0
2018-Jun-12 23:00N 39°32' W 075°49'0 0.0
2018-Jun-12 22:30N 39°32' W 075°49'0 0.0
2018-Jun-12 22:00N 39°32' W 075°49'0 0.0
2018-Jun-12 21:30N 39°32' W 075°49'0 0.0
2018-Jun-12 21:00N 39°32' W 075°49'0 0.0
2018-Jun-12 20:30N 39°32' W 075°49'0 0.0
2018-Jun-12 20:00N 39°32' W 075°49'0 0.0
2018-Jun-12 19:30N 39°32' W 075°49'0 0.0
2018-Jun-12 19:00N 39°32' W 075°49'0 0.0
2018-Jun-12 18:30N 39°32' W 075°49'0 0.0
2018-Jun-12 18:00N 39°32' W 075°49'0 0.0
2018-Jun-12 17:30N 39°32' W 075°49'0 0.0
2018-Jun-12 17:00N 39°32' W 075°49'0 0.0
2018-Jun-12 16:30N 39°32' W 075°49'0 0.0
2018-Jun-12 16:00N 39°32' W 075°49'0 0.0
2018-Jun-12 15:30N 39°32' W 075°49'0 0.0
2018-Jun-12 15:00N 39°32' W 075°49'0 0.0
2018-Jun-12 14:30N 39°32' W 075°49'0 0.0
2018-Jun-12 14:00N 39°32' W 075°49'0 0.0
2018-Jun-12 13:30N 39°32' W 075°49'0 0.0
2018-Jun-12 13:00N 39°32' W 075°49'0 0.0
2018-Jun-12 12:31N 39°32' W 075°49'0 0.0
2018-Jun-12 12:01N 39°32' W 075°49'0 0.0
2018-Jun-12 11:30N 39°32' W 075°49'0 0.0
2018-Jun-12 11:01N 39°32' W 075°49'0 0.0
2018-Jun-12 10:30N 39°32' W 075°49'0 0.0
2018-Jun-12 10:01N 39°32' W 075°49'0 0.0
2018-Jun-12 09:29N 39°32' W 075°49'0 0.0
2018-Jun-12 09:00N 39°32' W 075°49'0 0.0
2018-Jun-12 08:30N 39°32' W 075°49'0 0.0
2018-Jun-12 08:00N 39°32' W 075°49'0 0.0
2018-Jun-12 07:31N 39°32' W 075°49'0 0.0
2018-Jun-12 07:01N 39°32' W 075°49'0 0.0
2018-Jun-12 06:30N 39°32' W 075°49'0 0.0
2018-Jun-12 06:00N 39°32' W 075°49'0 0.0
2018-Jun-12 05:30N 39°32' W 075°49'0 0.0
2018-Jun-12 05:00N 39°32' W 075°49'0 0.0
2018-Jun-12 04:30N 39°32' W 075°49'0 0.0
2018-Jun-12 04:00N 39°32' W 075°49'0 0.0
2018-Jun-12 03:30N 39°32' W 075°49'0 0.0
2018-Jun-12 03:00N 39°32' W 075°49'0 0.0
2018-Jun-12 02:30N 39°32' W 075°49'0 0.0
2018-Jun-12 02:00N 39°32' W 075°49'0 0.0
2018-Jun-12 01:29N 39°32' W 075°49'0 0.0
2018-Jun-12 01:00N 39°32' W 075°49'0 0.0
2018-Jun-12 00:30N 39°32' W 075°49'0 0.0
2018-Jun-12 00:00N 39°32' W 075°49'0 0.0
2018-Jun-11 23:30N 39°32' W 075°49'0 0.0
2018-Jun-11 23:00N 39°32' W 075°49'0 0.0
2018-Jun-11 22:30N 39°32' W 075°49'0 0.0
2018-Jun-11 22:00N 39°32' W 075°49'0 0.0
2018-Jun-11 21:30N 39°32' W 075°49'0 0.0
2018-Jun-11 21:00N 39°32' W 075°49'0 0.0
2018-Jun-11 20:30N 39°32' W 075°49'0 0.0
2018-Jun-11 20:00N 39°32' W 075°49'0 0.0
2018-Jun-11 19:30N 39°32' W 075°49'0 0.0
2018-Jun-11 19:00N 39°32' W 075°49'0 0.0
2018-Jun-11 18:30N 39°32' W 075°49'  

Dump ship's entire track history